createdAt,value
2017-06-13T00:00:40.278Z,13.09
2017-06-13T00:01:36.542Z,13.11
2017-06-13T00:02:32.786Z,13.09
2017-06-13T00:03:29.035Z,13.09
2017-06-13T00:04:25.276Z,13.09
2017-06-13T00:05:21.512Z,13.09
2017-06-13T00:06:17.766Z,13.09
2017-06-13T00:07:14.026Z,13.09
2017-06-13T00:08:10.279Z,13.09
2017-06-13T00:09:06.523Z,13.09
2017-06-13T00:10:02.782Z,13.09
2017-06-13T00:10:59.014Z,13.09
2017-06-13T00:11:55.271Z,13.09
2017-06-13T00:12:51.538Z,13.09
2017-06-13T00:13:47.771Z,13.09
2017-06-13T00:14:44.019Z,13.09
2017-06-13T00:15:40.251Z,13.09
2017-06-13T00:16:36.502Z,13.09
2017-06-13T00:17:32.767Z,13.09
2017-06-13T00:18:29.007Z,13.09
2017-06-13T00:19:25.274Z,13.09
2017-06-13T00:20:21.529Z,13.09
2017-06-13T00:21:17.763Z,13.09
2017-06-13T00:22:14.030Z,13.09
2017-06-13T00:23:10.278Z,13.09
2017-06-13T00:24:06.514Z,13.09
2017-06-13T00:25:02.758Z,13.09
2017-06-13T00:25:59.006Z,13.09
2017-06-13T00:26:55.271Z,13.09
2017-06-13T00:27:51.534Z,13.09
2017-06-13T00:28:47.786Z,13.09
2017-06-13T00:29:44.022Z,13.09
2017-06-13T00:30:40.276Z,13.09
2017-06-13T00:31:36.530Z,13.09
2017-06-13T00:32:32.782Z,13.09
2017-06-13T00:33:29.034Z,13.09
2017-06-13T00:34:25.298Z,13.09
2017-06-13T00:35:21.559Z,13.08
2017-06-13T00:36:17.797Z,13.09
2017-06-13T00:37:14.063Z,13.09
2017-06-13T00:38:10.314Z,13.08
2017-06-13T00:39:06.551Z,13.09
2017-06-13T00:40:02.802Z,13.09
2017-06-13T00:40:59.050Z,13.08
2017-06-13T00:41:56.076Z,13.09
2017-06-13T00:42:52.345Z,13.09
2017-06-13T00:43:48.592Z,13.09
2017-06-13T00:44:44.875Z,13.08
2017-06-13T00:45:41.127Z,13.08
2017-06-13T00:46:37.400Z,13.08
2017-06-13T00:47:33.675Z,13.09
2017-06-13T00:48:29.940Z,13.08
2017-06-13T00:49:26.183Z,13.09
2017-06-13T00:50:22.443Z,13.08
2017-06-13T00:51:18.678Z,13.08
2017-06-13T00:52:14.934Z,13.08
2017-06-13T00:53:11.255Z,13.08
2017-06-13T00:54:07.518Z,13.08
2017-06-13T00:55:03.794Z,13.08
2017-06-13T00:56:00.030Z,13.08
2017-06-13T00:56:56.311Z,13.08
2017-06-13T00:57:52.575Z,13.08
2017-06-13T00:58:48.831Z,13.08
2017-06-13T00:59:45.082Z,13.08
2017-06-13T01:00:41.350Z,13.08
2017-06-13T01:01:37.604Z,13.08
2017-06-13T01:02:33.863Z,13.08
2017-06-13T01:03:30.114Z,13.08
2017-06-13T01:04:26.359Z,13.08
2017-06-13T01:05:22.631Z,13.08
2017-06-13T01:06:18.883Z,13.06
2017-06-13T01:07:15.127Z,13.08
2017-06-13T01:08:11.399Z,13.08
2017-06-13T01:09:07.663Z,13.08
2017-06-13T01:10:03.930Z,13.06
2017-06-13T01:11:00.218Z,13.06
2017-06-13T01:11:56.475Z,13.06
2017-06-13T01:12:52.751Z,13.06
2017-06-13T01:13:49.019Z,13.06
2017-06-13T01:14:45.287Z,13.06
2017-06-13T01:15:41.663Z,13.06
2017-06-13T01:16:38.155Z,13.08
2017-06-13T01:17:34.559Z,13.06
2017-06-13T01:18:30.819Z,13.06
2017-06-13T01:19:27.159Z,13.06
2017-06-13T01:20:23.471Z,13.08
2017-06-13T01:21:19.731Z,13.08
2017-06-13T01:22:16.003Z,13.06
2017-06-13T01:23:12.307Z,13.06
2017-06-13T01:24:08.702Z,13.06
2017-06-13T01:25:05.075Z,13.06
2017-06-13T01:26:01.331Z,13.06
2017-06-13T01:26:57.834Z,13.06
2017-06-13T01:27:54.115Z,12.76
2017-06-13T01:28:50.648Z,12.73
2017-06-13T01:29:46.900Z,12.71
2017-06-13T01:30:43.154Z,12.73
2017-06-13T01:31:39.399Z,12.73
2017-06-13T01:32:35.643Z,12.73
2017-06-13T01:33:31.902Z,12.74
2017-06-13T01:34:28.130Z,12.74
2017-06-13T01:35:24.370Z,12.76
2017-06-13T01:36:20.607Z,12.76
2017-06-13T01:37:16.891Z,12.76
2017-06-13T01:38:13.142Z,12.76
2017-06-13T01:39:09.370Z,12.77
2017-06-13T01:40:05.606Z,12.77
2017-06-13T01:41:01.858Z,12.76
2017-06-13T01:41:58.114Z,12.77
2017-06-13T01:42:54.352Z,12.77
2017-06-13T01:43:50.599Z,12.77
2017-06-13T01:44:46.834Z,12.77
2017-06-13T01:45:43.071Z,12.77
2017-06-13T01:46:39.294Z,12.79
2017-06-13T01:47:35.547Z,12.79
2017-06-13T01:48:31.818Z,12.79
2017-06-13T01:49:28.049Z,12.79
2017-06-13T01:50:24.299Z,12.79
2017-06-13T01:51:20.550Z,12.80
2017-06-13T01:52:16.775Z,12.80
2017-06-13T01:53:13.022Z,12.79
2017-06-13T01:54:09.315Z,12.80
2017-06-13T01:55:05.559Z,12.80
2017-06-13T01:56:01.791Z,12.80
2017-06-13T01:56:58.028Z,12.82
2017-06-13T01:57:54.259Z,12.82
2017-06-13T01:58:50.522Z,12.80
2017-06-13T01:59:46.761Z,12.82
2017-06-13T02:00:43.002Z,12.82
2017-06-13T02:01:39.255Z,12.82
2017-06-13T02:02:35.499Z,12.82
2017-06-13T02:03:31.747Z,12.82
2017-06-13T02:04:27.999Z,12.83
2017-06-13T02:05:24.230Z,12.83
2017-06-13T02:06:20.471Z,12.83
2017-06-13T02:07:16.711Z,12.83
2017-06-13T02:08:12.950Z,12.83
2017-06-13T02:09:09.190Z,12.83
2017-06-13T02:10:05.438Z,12.83
2017-06-13T02:11:01.663Z,12.83
2017-06-13T02:11:57.902Z,12.83
2017-06-13T02:12:54.126Z,12.83
2017-06-13T02:13:50.377Z,12.83
2017-06-13T02:14:46.606Z,12.83
2017-06-13T02:15:42.835Z,12.84
2017-06-13T02:16:39.195Z,12.84
2017-06-13T02:17:35.439Z,12.83
2017-06-13T02:18:31.670Z,12.84
2017-06-13T02:19:27.931Z,12.84
2017-06-13T02:20:24.174Z,12.84
2017-06-13T02:21:20.782Z,12.84
2017-06-13T02:22:17.023Z,12.83
2017-06-13T02:23:13.266Z,12.84
2017-06-13T02:24:09.546Z,12.84
2017-06-13T02:25:05.771Z,12.84
2017-06-13T02:26:02.011Z,12.84
2017-06-13T02:26:58.247Z,12.84
2017-06-13T02:27:54.482Z,12.84
2017-06-13T02:28:50.738Z,12.84
2017-06-13T02:29:46.982Z,12.84
2017-06-13T02:30:43.219Z,12.86
2017-06-13T02:31:39.451Z,12.84
2017-06-13T02:32:35.711Z,12.83
2017-06-13T02:33:31.958Z,12.83
2017-06-13T02:34:28.231Z,12.84
2017-06-13T02:35:24.474Z,12.84
2017-06-13T02:36:20.718Z,12.84
2017-06-13T02:37:16.970Z,12.86
2017-06-13T02:38:13.210Z,12.86
2017-06-13T02:39:09.475Z,12.86
2017-06-13T02:40:05.722Z,12.84
2017-06-13T02:41:01.975Z,12.84
2017-06-13T02:41:58.251Z,12.84
2017-06-13T02:42:54.494Z,12.84
2017-06-13T02:43:50.754Z,12.84
2017-06-13T02:44:47.006Z,12.84
2017-06-13T02:45:43.247Z,12.84
2017-06-13T02:46:39.482Z,12.84
2017-06-13T02:47:35.730Z,12.84
2017-06-13T02:48:31.962Z,12.84
2017-06-13T02:49:28.226Z,12.84
2017-06-13T02:50:24.475Z,12.86
2017-06-13T02:51:20.722Z,12.86
2017-06-13T02:52:16.983Z,12.86
2017-06-13T02:53:13.223Z,12.86
2017-06-13T02:54:09.487Z,12.86
2017-06-13T02:55:05.759Z,12.86
2017-06-13T02:56:02.012Z,12.84
2017-06-13T02:56:58.252Z,12.86
2017-06-13T02:57:54.494Z,12.86
2017-06-13T02:58:50.735Z,12.86
2017-06-13T02:59:46.988Z,12.86
2017-06-13T03:00:43.230Z,12.84
2017-06-13T03:01:39.467Z,12.86
2017-06-13T03:02:35.710Z,12.86
2017-06-13T03:03:31.950Z,12.84
2017-06-13T03:04:28.206Z,12.86
2017-06-13T03:05:24.443Z,12.86
2017-06-13T03:06:20.710Z,12.84
2017-06-13T03:07:16.955Z,12.86
2017-06-13T03:08:13.207Z,12.84
2017-06-13T03:09:09.450Z,12.84
2017-06-13T03:10:05.711Z,12.84
2017-06-13T03:11:01.955Z,12.86
2017-06-13T03:11:58.195Z,12.86
2017-06-13T03:12:54.430Z,12.86
2017-06-13T03:13:50.686Z,12.86
2017-06-13T03:14:46.947Z,12.86
2017-06-13T03:15:43.219Z,12.86
2017-06-13T03:16:39.510Z,12.86
2017-06-13T03:17:35.754Z,12.86
2017-06-13T03:18:32.006Z,12.86
2017-06-13T03:19:28.279Z,12.86
2017-06-13T03:20:24.527Z,12.86
2017-06-13T03:21:20.779Z,12.87
2017-06-13T03:22:17.029Z,12.87
2017-06-13T03:23:13.271Z,12.87
2017-06-13T03:24:09.514Z,12.86
2017-06-13T03:25:05.777Z,12.86
2017-06-13T03:26:02.059Z,12.87
2017-06-13T03:26:58.326Z,12.87
2017-06-13T03:27:54.566Z,12.87
2017-06-13T03:28:50.819Z,12.89
2017-06-13T03:29:47.070Z,12.87
2017-06-13T03:30:43.318Z,12.89
2017-06-13T03:31:39.558Z,12.89
2017-06-13T03:32:35.807Z,12.89
2017-06-13T03:33:32.081Z,12.89
2017-06-13T03:34:28.326Z,12.89
2017-06-13T03:35:24.581Z,12.89
2017-06-13T03:36:20.829Z,12.90
2017-06-13T03:37:17.074Z,12.90
2017-06-13T03:38:13.330Z,12.90
2017-06-13T03:39:11.174Z,12.90
2017-06-13T03:40:07.431Z,12.90
2017-06-13T03:41:03.674Z,12.90
2017-06-13T03:41:59.918Z,12.92
2017-06-13T03:42:56.146Z,12.90
2017-06-13T03:43:52.391Z,12.92
2017-06-13T03:44:48.655Z,12.93
2017-06-13T03:45:44.914Z,12.92
2017-06-13T03:46:41.150Z,12.92
2017-06-13T03:47:37.430Z,12.93
2017-06-13T03:48:33.690Z,12.92
2017-06-13T03:49:29.930Z,12.93
2017-06-13T03:50:26.186Z,12.93
2017-06-13T03:51:22.439Z,12.95
2017-06-13T03:52:18.688Z,12.95
2017-06-13T03:53:14.942Z,12.95
2017-06-13T03:54:11.199Z,12.95
2017-06-13T03:55:07.454Z,12.95
2017-06-13T03:56:03.736Z,12.95
2017-06-13T03:56:59.994Z,12.96
2017-06-13T03:57:56.239Z,12.96
2017-06-13T03:58:52.506Z,12.96
2017-06-13T03:59:48.767Z,12.96
2017-06-13T04:00:45.030Z,12.96
2017-06-13T04:01:41.267Z,12.96
2017-06-13T04:02:37.528Z,12.98
2017-06-13T04:03:33.778Z,12.98
2017-06-13T04:04:30.038Z,12.99
2017-06-13T04:05:26.291Z,13.01
2017-06-13T04:06:22.545Z,13.01
2017-06-13T04:07:18.795Z,13.02
2017-06-13T04:08:15.046Z,13.02
2017-06-13T04:09:11.543Z,13.04
2017-06-13T04:10:07.791Z,13.05
2017-06-13T04:11:04.046Z,13.05
2017-06-13T04:12:00.295Z,13.06
2017-06-13T04:12:56.546Z,13.06
2017-06-13T04:13:52.795Z,13.06
2017-06-13T04:14:49.126Z,13.08
2017-06-13T04:15:45.382Z,13.09
2017-06-13T04:16:41.620Z,13.14
2017-06-13T04:17:37.863Z,13.15
2017-06-13T04:18:34.103Z,13.15
2017-06-13T04:19:30.492Z,13.17
2017-06-13T04:20:26.754Z,13.20
2017-06-13T04:21:22.988Z,13.21
2017-06-13T04:22:19.210Z,13.23
2017-06-13T04:23:15.463Z,13.23
2017-06-13T04:24:11.686Z,13.26
2017-06-13T04:25:07.922Z,13.26
2017-06-13T04:26:08.691Z,13.27
2017-06-13T04:27:04.978Z,13.30
2017-06-13T04:28:01.267Z,13.30
2017-06-13T04:28:57.566Z,13.31
2017-06-13T04:29:53.871Z,13.33
2017-06-13T04:30:50.198Z,13.34
2017-06-13T04:31:46.426Z,13.36
2017-06-13T04:32:42.666Z,13.37
2017-06-13T04:33:38.894Z,13.37
2017-06-13T04:34:35.135Z,13.39
2017-06-13T04:35:31.378Z,13.40
2017-06-13T04:36:27.624Z,13.42
2017-06-13T04:37:23.855Z,13.43
2017-06-13T04:38:20.095Z,13.43
2017-06-13T04:39:16.327Z,13.46
2017-06-13T04:40:12.574Z,13.48
2017-06-13T04:41:08.830Z,13.49
2017-06-13T04:42:05.099Z,13.49
2017-06-13T04:43:01.358Z,13.52
2017-06-13T04:43:57.662Z,13.50
2017-06-13T04:44:53.886Z,13.52
2017-06-13T04:45:50.147Z,13.53
2017-06-13T04:46:46.370Z,13.53
2017-06-13T04:47:42.595Z,13.55
2017-06-13T04:48:38.830Z,13.56
2017-06-13T04:49:35.071Z,13.58
2017-06-13T04:50:31.320Z,13.59
2017-06-13T04:51:27.570Z,13.61
2017-06-13T04:52:23.802Z,13.61
2017-06-13T04:53:20.032Z,13.61
2017-06-13T04:54:16.260Z,13.62
2017-06-13T04:55:12.507Z,13.64
2017-06-13T04:56:08.754Z,13.65
2017-06-13T04:57:04.998Z,13.65
2017-06-13T04:58:01.243Z,13.67
2017-06-13T04:58:57.476Z,13.67
2017-06-13T04:59:53.763Z,13.68
2017-06-13T05:00:49.999Z,13.68
2017-06-13T05:01:46.251Z,13.70
2017-06-13T05:02:42.612Z,13.71
2017-06-13T05:03:38.846Z,13.72
2017-06-13T05:04:35.087Z,13.72
2017-06-13T05:05:31.327Z,13.72
2017-06-13T05:06:27.583Z,13.74
2017-06-13T05:07:23.832Z,13.74
2017-06-13T05:08:20.103Z,13.74
2017-06-13T05:09:16.906Z,13.75
2017-06-13T05:10:13.147Z,13.75
2017-06-13T05:11:09.411Z,13.77
2017-06-13T05:12:05.655Z,13.78
2017-06-13T05:13:01.902Z,13.78
2017-06-13T05:13:58.143Z,13.78
2017-06-13T05:14:54.386Z,13.78
2017-06-13T05:15:50.667Z,13.80
2017-06-13T05:16:47.147Z,13.81
2017-06-13T05:17:43.382Z,13.81
2017-06-13T05:18:39.614Z,13.81
2017-06-13T05:19:35.859Z,13.83
2017-06-13T05:20:32.095Z,13.84
2017-06-13T05:21:28.390Z,13.86
2017-06-13T05:22:24.627Z,13.86
2017-06-13T05:23:20.879Z,13.87
2017-06-13T05:24:17.119Z,13.89
2017-06-13T05:25:13.342Z,13.89
2017-06-13T05:26:09.586Z,13.90
2017-06-13T05:27:05.848Z,13.91
2017-06-13T05:28:02.146Z,13.93
2017-06-13T05:28:58.428Z,13.94
2017-06-13T05:29:54.666Z,13.94
2017-06-13T05:30:50.920Z,13.96
2017-06-13T05:31:47.190Z,13.97
2017-06-13T05:32:43.422Z,13.93
2017-06-13T05:33:39.707Z,13.97
2017-06-13T05:34:35.975Z,13.96
2017-06-13T05:35:32.223Z,13.97
2017-06-13T05:36:28.474Z,13.93
2017-06-13T05:37:24.734Z,13.97
2017-06-13T05:38:20.990Z,13.97
2017-06-13T05:39:17.227Z,13.97
2017-06-13T05:40:13.474Z,13.96
2017-06-13T05:41:09.715Z,13.97
2017-06-13T05:42:05.974Z,13.97
2017-06-13T05:43:02.243Z,13.97
2017-06-13T05:43:58.495Z,13.93
2017-06-13T05:44:54.735Z,13.91
2017-06-13T05:45:50.978Z,13.96
2017-06-13T05:46:47.242Z,13.97
2017-06-13T05:47:43.494Z,13.96
2017-06-13T05:48:39.739Z,13.93
2017-06-13T05:49:35.977Z,13.96
2017-06-13T05:50:32.235Z,13.91
2017-06-13T05:51:28.467Z,13.96
2017-06-13T05:52:24.722Z,13.96
2017-06-13T05:53:20.950Z,13.97
2017-06-13T05:54:17.195Z,13.96
2017-06-13T05:55:13.462Z,13.96
2017-06-13T05:56:09.711Z,13.96
2017-06-13T05:57:05.975Z,13.96
2017-06-13T05:58:02.231Z,13.96
2017-06-13T05:58:58.514Z,13.97
2017-06-13T05:59:54.752Z,13.97
2017-06-13T06:00:50.991Z,13.96
2017-06-13T06:01:47.230Z,13.91
2017-06-13T06:02:43.479Z,13.93
2017-06-13T06:03:39.712Z,13.97
2017-06-13T06:04:35.963Z,13.93
2017-06-13T06:05:32.203Z,13.93
2017-06-13T06:06:28.455Z,13.93
2017-06-13T06:07:24.699Z,13.93
2017-06-13T06:08:20.942Z,13.93
2017-06-13T06:09:17.179Z,13.91
2017-06-13T06:10:13.422Z,13.91
2017-06-13T06:11:09.655Z,13.90
2017-06-13T06:12:05.894Z,13.96
2017-06-13T06:13:02.155Z,13.96
2017-06-13T06:13:58.395Z,13.90
2017-06-13T06:14:54.646Z,13.91
2017-06-13T06:15:50.887Z,13.96
2017-06-13T06:16:47.127Z,13.96
2017-06-13T06:17:43.366Z,13.97
2017-06-13T06:18:39.622Z,13.91
2017-06-13T06:19:36.014Z,13.93
2017-06-13T06:20:32.254Z,13.91
2017-06-13T06:21:28.483Z,13.93
2017-06-13T06:22:24.726Z,14.00
2017-06-13T06:23:20.963Z,13.94
2017-06-13T06:24:17.255Z,14.02
2017-06-13T06:25:13.494Z,13.94
2017-06-13T06:26:09.727Z,13.94
2017-06-13T06:27:06.031Z,13.94
2017-06-13T06:28:02.272Z,14.02
2017-06-13T06:28:58.506Z,14.00
2017-06-13T06:29:54.761Z,14.00
2017-06-13T06:30:51.002Z,13.99
2017-06-13T06:31:47.231Z,13.99
2017-06-13T06:32:43.474Z,13.93
2017-06-13T06:33:39.724Z,13.99
2017-06-13T06:34:35.982Z,13.93
2017-06-13T06:35:32.227Z,13.94
2017-06-13T06:36:28.470Z,13.93
2017-06-13T06:37:24.696Z,14.00
2017-06-13T06:38:20.932Z,14.00
2017-06-13T06:39:17.166Z,13.94
2017-06-13T06:40:13.418Z,13.94
2017-06-13T06:41:09.658Z,13.94
2017-06-13T06:42:05.887Z,14.03
2017-06-13T06:43:02.122Z,13.96
2017-06-13T06:43:58.364Z,14.03
2017-06-13T06:44:54.628Z,14.05
2017-06-13T06:45:50.870Z,13.96
2017-06-13T06:46:47.113Z,13.96
2017-06-13T06:47:43.846Z,13.96
2017-06-13T06:48:40.099Z,13.96
2017-06-13T06:49:36.342Z,14.05
2017-06-13T06:50:32.579Z,14.05
2017-06-13T06:51:28.823Z,13.96
2017-06-13T06:52:25.066Z,13.96
2017-06-13T06:53:21.341Z,14.05
2017-06-13T06:54:17.587Z,13.96
2017-06-13T06:55:13.833Z,13.96
2017-06-13T06:56:10.063Z,13.96
2017-06-13T06:57:06.315Z,13.96
2017-06-13T06:58:02.556Z,13.96
2017-06-13T06:58:58.804Z,13.96
2017-06-13T06:59:55.082Z,13.96
2017-06-13T07:00:51.313Z,14.05
2017-06-13T07:01:47.578Z,13.96
2017-06-13T07:02:43.815Z,14.05
2017-06-13T07:03:40.042Z,14.03
2017-06-13T07:04:36.286Z,14.03
2017-06-13T07:05:32.579Z,14.03
2017-06-13T07:06:28.896Z,14.03
2017-06-13T07:07:25.135Z,13.96
2017-06-13T07:08:21.419Z,14.03
2017-06-13T07:09:17.671Z,13.96
2017-06-13T07:10:13.919Z,13.96
2017-06-13T07:11:10.184Z,13.94
2017-06-13T07:12:06.422Z,13.96
2017-06-13T07:13:02.650Z,13.96
2017-06-13T07:13:58.899Z,13.96
2017-06-13T07:14:55.147Z,14.03
2017-06-13T07:15:51.378Z,13.94
2017-06-13T07:16:47.639Z,14.03
2017-06-13T07:17:43.885Z,14.00
2017-06-13T07:18:40.119Z,14.03
2017-06-13T07:19:36.358Z,13.96
2017-06-13T07:20:32.626Z,13.94
2017-06-13T07:21:28.871Z,14.03
2017-06-13T07:22:25.127Z,13.96
2017-06-13T07:23:21.379Z,14.03
2017-06-13T07:24:17.622Z,13.96
2017-06-13T07:25:13.866Z,14.02
2017-06-13T07:26:10.107Z,14.03
2017-06-13T07:27:06.343Z,13.96
2017-06-13T07:28:02.606Z,14.03
2017-06-13T07:28:58.863Z,13.96
2017-06-13T07:29:55.113Z,14.03
2017-06-13T07:30:51.354Z,14.03
2017-06-13T07:31:47.607Z,14.03
2017-06-13T07:32:43.843Z,13.96
2017-06-13T07:33:40.107Z,13.96
2017-06-13T07:34:36.339Z,13.96
2017-06-13T07:35:32.584Z,13.96
2017-06-13T07:36:28.843Z,14.05
2017-06-13T07:37:25.082Z,13.96
2017-06-13T07:38:21.448Z,13.96
2017-06-13T07:39:17.723Z,13.96
2017-06-13T07:40:14.002Z,13.96
2017-06-13T07:41:10.255Z,14.05
2017-06-13T07:42:06.495Z,14.05
2017-06-13T07:43:02.743Z,13.96
2017-06-13T07:43:59.019Z,14.03
2017-06-13T07:44:55.258Z,13.96
2017-06-13T07:45:51.499Z,13.96
2017-06-13T07:46:47.742Z,13.96
2017-06-13T07:47:43.987Z,13.96
2017-06-13T07:48:40.234Z,13.96
2017-06-13T07:49:36.499Z,13.96
2017-06-13T07:50:32.758Z,14.06
2017-06-13T07:51:29.000Z,13.96
2017-06-13T07:52:25.235Z,14.06
2017-06-13T07:53:21.500Z,14.03
2017-06-13T07:54:17.739Z,13.94
2017-06-13T07:55:13.999Z,13.94
2017-06-13T07:56:10.243Z,13.96
2017-06-13T07:57:06.499Z,13.96
2017-06-13T07:58:02.755Z,13.96
2017-06-13T07:58:58.985Z,13.96
2017-06-13T07:59:55.231Z,13.96
2017-06-13T08:00:51.486Z,13.96
2017-06-13T08:01:47.723Z,13.94
2017-06-13T08:02:43.970Z,13.94
2017-06-13T08:03:40.202Z,13.94
2017-06-13T08:04:36.443Z,13.96
2017-06-13T08:05:32.704Z,13.96
2017-06-13T08:06:28.958Z,13.94
2017-06-13T08:07:26.098Z,13.94
2017-06-13T08:08:22.352Z,13.94
2017-06-13T08:09:18.591Z,13.94
2017-06-13T08:10:14.830Z,13.96
2017-06-13T08:11:11.094Z,13.94
2017-06-13T08:12:07.343Z,13.94
2017-06-13T08:13:03.591Z,13.94
2017-06-13T08:13:59.847Z,13.94
2017-06-13T08:14:56.115Z,13.94
2017-06-13T08:15:52.389Z,13.93
2017-06-13T08:16:48.638Z,13.93
2017-06-13T08:17:44.883Z,13.94
2017-06-13T08:18:41.122Z,13.93
2017-06-13T08:19:37.386Z,13.93
2017-06-13T08:20:33.659Z,13.93
2017-06-13T08:21:29.912Z,13.91
2017-06-13T08:22:26.151Z,13.91
2017-06-13T08:23:22.394Z,13.91
2017-06-13T08:24:18.635Z,13.91
2017-06-13T08:25:14.895Z,13.91
2017-06-13T08:26:11.159Z,13.91
2017-06-13T08:27:07.431Z,13.91
2017-06-13T08:28:03.668Z,13.90
2017-06-13T08:28:59.922Z,13.91
2017-06-13T08:29:56.182Z,13.91
2017-06-13T08:30:52.454Z,13.91
2017-06-13T08:31:48.698Z,13.93
2017-06-13T08:32:44.943Z,13.91
2017-06-13T08:33:41.182Z,13.91
2017-06-13T08:34:37.447Z,13.91
2017-06-13T08:35:33.702Z,13.91
2017-06-13T08:36:29.971Z,13.91
2017-06-13T08:37:26.256Z,13.93
2017-06-13T08:38:22.511Z,13.91
2017-06-13T08:39:18.751Z,13.94
2017-06-13T08:40:14.999Z,13.93
2017-06-13T08:41:11.263Z,13.93
2017-06-13T08:42:07.520Z,13.93
2017-06-13T08:43:03.799Z,13.91
2017-06-13T08:44:00.043Z,13.93
2017-06-13T08:44:56.294Z,13.93
2017-06-13T08:45:52.534Z,13.93
2017-06-13T08:46:48.799Z,13.93
2017-06-13T08:47:45.058Z,13.90
2017-06-13T08:48:41.290Z,13.91
2017-06-13T08:49:37.534Z,14.21
2017-06-13T08:50:33.776Z,13.91
2017-06-13T08:51:30.051Z,13.93
2017-06-13T08:52:26.290Z,13.91
2017-06-13T08:53:22.551Z,13.91
2017-06-13T08:54:18.822Z,13.90
2017-06-13T08:55:15.070Z,13.93
2017-06-13T08:56:11.325Z,13.91
2017-06-13T08:57:07.627Z,13.90
2017-06-13T08:58:03.879Z,13.90
2017-06-13T08:59:00.119Z,13.90
2017-06-13T08:59:56.371Z,13.90
2017-06-13T09:00:52.619Z,14.24
2017-06-13T09:01:48.874Z,13.90
2017-06-13T09:02:45.139Z,13.90
2017-06-13T09:03:41.390Z,13.90
2017-06-13T09:04:37.634Z,14.27
2017-06-13T09:05:33.875Z,13.90
2017-06-13T09:06:30.115Z,14.22
2017-06-13T09:07:26.406Z,13.90
2017-06-13T09:08:22.650Z,13.91
2017-06-13T09:09:19.003Z,13.90
2017-06-13T09:10:15.255Z,13.90
2017-06-13T09:11:11.511Z,13.89
2017-06-13T09:12:07.771Z,13.87
2017-06-13T09:13:04.035Z,13.89
2017-06-13T09:14:00.314Z,13.89
2017-06-13T09:14:56.598Z,13.87
2017-06-13T09:15:52.876Z,13.94
2017-06-13T09:16:49.127Z,13.87
2017-06-13T09:17:45.407Z,13.86
2017-06-13T09:18:41.683Z,13.86
2017-06-13T09:19:37.934Z,13.89
2017-06-13T09:20:34.170Z,13.87
2017-06-13T09:21:30.427Z,13.87
2017-06-13T09:22:26.679Z,13.87
2017-06-13T09:23:22.923Z,14.52
2017-06-13T09:24:19.170Z,13.83
2017-06-13T09:25:15.418Z,13.83
2017-06-13T09:26:11.663Z,13.81
2017-06-13T09:27:07.903Z,13.78
2017-06-13T09:28:04.154Z,13.78
2017-06-13T09:29:00.406Z,13.77
2017-06-13T09:29:56.631Z,13.78
2017-06-13T09:30:52.885Z,13.78
2017-06-13T09:31:49.129Z,13.78
2017-06-13T09:32:45.363Z,13.78
2017-06-13T09:33:41.605Z,13.80
2017-06-13T09:34:37.866Z,13.80
2017-06-13T09:35:34.122Z,13.81
2017-06-13T09:36:30.363Z,13.81
2017-06-13T09:37:26.602Z,13.83
2017-06-13T09:38:22.866Z,13.86
2017-06-13T09:39:19.142Z,13.86
2017-06-13T09:40:15.383Z,13.87
2017-06-13T09:41:11.670Z,13.87
2017-06-13T09:42:07.995Z,13.87
2017-06-13T09:43:04.278Z,13.89
2017-06-13T09:44:00.595Z,13.87
2017-06-13T09:44:56.858Z,13.87
2017-06-13T09:45:53.103Z,13.86
2017-06-13T09:46:49.362Z,13.83
2017-06-13T09:47:45.625Z,13.83
2017-06-13T09:48:41.886Z,13.81
2017-06-13T09:49:38.147Z,13.81
2017-06-13T09:50:34.419Z,13.81
2017-06-13T09:51:30.663Z,13.80
2017-06-13T09:52:26.909Z,13.77
2017-06-13T09:53:23.175Z,13.80
2017-06-13T09:54:19.418Z,13.78
2017-06-13T09:55:15.678Z,13.80
2017-06-13T09:56:11.987Z,13.80
2017-06-13T09:57:08.230Z,13.80
2017-06-13T09:58:04.536Z,13.80
2017-06-13T09:59:00.787Z,13.78
2017-06-13T09:59:57.035Z,13.80
2017-06-13T10:00:53.278Z,13.77
2017-06-13T10:01:49.527Z,13.77
2017-06-13T10:02:45.763Z,13.78
2017-06-13T10:03:42.010Z,13.80
2017-06-13T10:04:38.266Z,13.80
2017-06-13T10:05:34.580Z,13.81
2017-06-13T10:06:30.847Z,13.84
2017-06-13T10:07:27.082Z,13.86
2017-06-13T10:08:23.327Z,13.84
2017-06-13T10:09:19.583Z,13.84
2017-06-13T10:10:15.836Z,13.86
2017-06-13T10:11:12.083Z,13.86
2017-06-13T10:12:08.372Z,13.84
2017-06-13T10:13:04.635Z,13.86
2017-06-13T10:14:00.886Z,13.86
2017-06-13T10:14:57.130Z,13.87
2017-06-13T10:15:53.369Z,13.87
2017-06-13T10:16:49.619Z,13.87
2017-06-13T10:17:45.899Z,13.87
2017-06-13T10:18:42.163Z,13.89
2017-06-13T10:19:38.419Z,13.89
2017-06-13T10:20:34.687Z,13.86
2017-06-13T10:21:30.946Z,13.83
2017-06-13T10:22:27.194Z,13.78
2017-06-13T10:23:23.490Z,13.75
2017-06-13T10:24:19.734Z,13.74
2017-06-13T10:25:15.998Z,13.74
2017-06-13T10:26:12.250Z,13.77
2017-06-13T10:27:08.495Z,13.75
2017-06-13T10:28:04.742Z,13.75
2017-06-13T10:29:01.026Z,13.75
2017-06-13T10:29:57.254Z,13.77
2017-06-13T10:30:53.499Z,13.78
2017-06-13T10:31:49.738Z,13.78
2017-06-13T10:32:45.997Z,13.78
2017-06-13T10:33:42.254Z,13.80
2017-06-13T10:34:38.528Z,13.80
2017-06-13T10:35:34.775Z,13.81
2017-06-13T10:36:31.030Z,13.81
2017-06-13T10:37:27.279Z,14.15
2017-06-13T10:38:23.531Z,13.81
2017-06-13T10:39:19.832Z,13.83
2017-06-13T10:40:16.069Z,13.83
2017-06-13T10:41:12.312Z,13.84
2017-06-13T10:42:08.565Z,13.84
2017-06-13T10:43:04.808Z,13.84
2017-06-13T10:44:01.076Z,13.84
2017-06-13T10:44:57.346Z,13.86
2017-06-13T10:45:53.602Z,13.86
2017-06-13T10:46:49.846Z,14.08
2017-06-13T10:47:46.091Z,13.86
2017-06-13T10:48:42.338Z,13.86
2017-06-13T10:49:38.622Z,13.86
2017-06-13T10:50:34.876Z,13.86
2017-06-13T10:51:31.134Z,13.86
2017-06-13T10:52:27.379Z,13.86
2017-06-13T10:53:24.400Z,13.87
2017-06-13T10:54:20.643Z,13.89
2017-06-13T10:55:16.911Z,13.87
2017-06-13T10:56:13.158Z,13.87
2017-06-13T10:57:09.404Z,13.89
2017-06-13T10:58:05.674Z,13.87
2017-06-13T10:59:01.919Z,13.86
2017-06-13T10:59:58.177Z,14.11
2017-06-13T11:00:54.438Z,13.87
2017-06-13T11:01:50.684Z,13.87
2017-06-13T11:02:46.955Z,13.87
2017-06-13T11:03:43.227Z,13.89
2017-06-13T11:04:39.488Z,13.90
2017-06-13T11:05:35.762Z,13.90
2017-06-13T11:06:32.030Z,13.90
2017-06-13T11:07:28.263Z,13.86
2017-06-13T11:08:24.502Z,13.83
2017-06-13T11:09:20.743Z,13.80
2017-06-13T11:10:16.998Z,13.78
2017-06-13T11:11:13.267Z,13.77
2017-06-13T11:12:09.524Z,13.77
2017-06-13T11:13:05.783Z,13.78
2017-06-13T11:14:02.022Z,13.80
2017-06-13T11:14:58.279Z,13.78
2017-06-13T11:15:54.522Z,13.78
2017-06-13T11:16:50.812Z,13.78
2017-06-13T11:17:47.063Z,13.80
2017-06-13T11:18:43.314Z,13.80
2017-06-13T11:19:39.570Z,13.80
2017-06-13T11:20:35.888Z,13.81
2017-06-13T11:21:32.163Z,13.80
2017-06-13T11:22:28.422Z,13.81
2017-06-13T11:23:24.682Z,13.80
2017-06-13T11:24:20.925Z,13.81
2017-06-13T11:25:17.162Z,13.80
2017-06-13T11:26:13.423Z,13.80
2017-06-13T11:27:09.721Z,13.81
2017-06-13T11:28:05.979Z,13.80
2017-06-13T11:29:02.219Z,13.80
2017-06-13T11:29:58.458Z,13.81
2017-06-13T11:30:54.702Z,13.83
2017-06-13T11:31:50.970Z,14.13
2017-06-13T11:32:47.218Z,13.83
2017-06-13T11:33:43.483Z,13.83
2017-06-13T11:34:39.742Z,13.83
2017-06-13T11:35:35.997Z,13.86
2017-06-13T11:36:32.239Z,13.83
2017-06-13T11:37:28.486Z,14.21
2017-06-13T11:38:24.747Z,13.81
2017-06-13T11:39:21.003Z,13.80
2017-06-13T11:40:17.250Z,13.80
2017-06-13T11:41:13.495Z,13.81
2017-06-13T11:42:09.742Z,13.81
2017-06-13T11:43:05.999Z,13.81
2017-06-13T11:44:02.272Z,13.80
2017-06-13T11:44:58.532Z,13.81
2017-06-13T11:45:54.771Z,13.81
2017-06-13T11:46:51.027Z,13.81
2017-06-13T11:47:47.267Z,13.81
2017-06-13T11:48:43.536Z,13.81
2017-06-13T11:49:39.779Z,13.80
2017-06-13T11:50:36.042Z,13.80
2017-06-13T11:51:32.283Z,13.80
2017-06-13T11:52:28.547Z,13.80
2017-06-13T11:53:24.807Z,13.80
2017-06-13T11:54:21.063Z,13.80
2017-06-13T11:55:17.312Z,13.78
2017-06-13T11:56:13.558Z,13.75
2017-06-13T11:57:09.794Z,13.75
2017-06-13T11:58:06.038Z,13.74
2017-06-13T11:59:02.331Z,13.71
2017-06-13T11:59:58.578Z,13.71
2017-06-13T12:00:54.823Z,13.70
2017-06-13T12:01:51.066Z,13.70
2017-06-13T12:02:47.342Z,13.99
2017-06-13T12:03:43.602Z,13.72
2017-06-13T12:04:39.863Z,13.72